Time;durP1;ratioP1;P1;durP2;ratioP2;P2;SDS_P1;SDS_P2;PMS_P1;PMS_P2;Temp;Humidity;BMP_temperature;BMP_pressure;BME280_temperature;BME280_humidity;BME280_pressure;Samples;Min_cycle;Max_cycle;Signal;HPM_P1;HPM_P2
2022/05/01 00:00:07;;;;;;;17.08;14.05;;;;;;;;;;5053149;28;20056;-83
2022/05/01 00:02:36;;;;;;;17.02;13.82;;;;;;;;;;5046506;28;20046;-83
2022/05/01 00:05:32;;;;;;;;;;;;;;;;;;;;;
2022/05/01 00:08:04;;;;;;;18.92;14.50;;;;;;;;;;5054100;28;20033;-84
2022/05/01 00:10:45;;;;;;;;;;;;;;;;;;;;;
2022/05/01 00:13:32;;;;;;;;;;;;;;;;;;5050490;28;20064;-83
2022/05/01 00:16:03;;;;;;;17.45;13.65;;;;;;;;;;5053350;28;19927;-83
2022/05/01 00:18:32;;;;;;;17.02;14.23;;;;;;;;;;5034719;28;20037;-83
2022/05/01 00:21:08;;;;;;;;;;;;;;;;;;;;;
2022/05/01 00:23:36;;;;;;;17.40;13.98;;;;;;;;;;5054572;28;20049;-84
2022/05/01 00:26:03;;;;;;;20.77;14.43;;;;;;;;;;5047896;28;20034;-83
2022/05/01 00:28:33;;;;;;;19.38;14.35;;;;;;;;;;5055449;28;20041;-83
2022/05/01 00:30:59;;;;;;;17.73;15.15;;;;;;;;;;5048676;28;20052;-83
2022/05/01 00:36:25;;;;;;;16.70;14.75;;;;;;;;;;5050598;28;20116;-84
2022/05/01 00:38:54;;;;;;;19.00;15.80;;;;;;;;;;5036429;28;20041;-83
2022/05/01 00:41:26;;;;;;;20.08;15.20;;;;;;;;;;5052832;28;20030;-83
2022/05/01 00:44:03;;;;;;;18.23;14.73;;;;;;;;;;5050250;28;20054;-84
2022/05/01 00:46:29;;;;;;;22.30;16.45;;;;;;;;;;5034744;28;20556;-83
2022/05/01 00:48:59;;;;;;;18.30;15.98;;;;;;;;;;5052213;28;20049;-83
2022/05/01 00:51:25;;;;;;;22.83;16.40;;;;;;;;;;5048008;28;20498;-82
2022/05/01 00:53:52;;;;;;;21.58;15.75;;;;;;;;;;5053734;28;20097;-83
2022/05/01 00:56:18;;;;;;;18.45;16.40;;;;;;;;;;5053184;28;20045;-83
2022/05/01 00:59:08;;;;;;;19.20;16.17;;;;;;;;;;5051880;28;20101;-82
2022/05/01 01:01:56;;;;;;;20.13;15.90;;;;;;;;;;5061975;28;20045;-83
2022/05/01 01:04:33;;;;;;;;;;;;;;;;;;;;;
2022/05/01 01:07:00;;;;;;;19.15;15.90;;;;;;;;;;5071221;28;20044;-82
2022/05/01 01:09:26;;;;;;;21.60;15.65;;;;;;;;;;5052219;28;20046;-83
2022/05/01 01:14:42;;;;;;;20.00;16.85;;;;;;;;;;5042236;28;20080;-83
2022/05/01 01:17:11;;;;;;;20.13;15.98;;;;;;;;;;5053885;28;20048;-83
2022/05/01 01:19:37;;;;;;;20.05;15.82;;;;;;;;;;5072782;28;20033;-82
2022/05/01 01:22:07;;;;;;;20.20;16.35;;;;;;;;;;5072138;28;20040;-83
2022/05/01 01:24:36;;;;;;;24.70;17.50;;;;;;;;;;5053606;28;20053;-81
2022/05/01 01:27:02;;;;;;;20.40;16.58;;;;;;;;;;5054307;28;20068;-83
2022/05/01 01:32:13;;;;;;;21.23;16.73;;;;;;;;;;5062229;28;20052;-83
2022/05/01 01:34:42;;;;;;;20.50;16.30;;;;;;;;;;5068511;28;20514;-83
2022/05/01 01:37:08;;;;;;;20.30;16.70;;;;;;;;;;5070455;28;20060;-83
2022/05/01 01:39:34;;;;;;;20.80;16.55;;;;;;;;;;5070954;28;20087;-82
2022/05/01 01:42:01;;;;;;;22.90;17.35;;;;;;;;;;5058166;28;20041;-83
2022/05/01 01:44:29;;;;;;;21.65;17.05;;;;;;;;;;5038342;28;20064;-83
2022/05/01 01:46:55;;;;;;;22.20;16.25;;;;;;;;;;5030944;28;20042;-82
2022/05/01 01:49:23;;;;;;;23.73;16.88;;;;;;;;;;5067871;28;20048;-83
2022/05/01 01:51:49;;;;;;;22.08;16.70;;;;;;;;;;5069707;28;20037;-83
2022/05/01 01:54:16;;;;;;;21.75;17.08;;;;;;;;;;5074066;28;20067;-83
2022/05/01 01:56:45;;;;;;;23.17;16.35;;;;;;;;;;5048188;28;20076;-83
2022/05/01 01:59:11;;;;;;;22.63;16.73;;;;;;;;;;5056582;28;20088;-82
2022/05/01 02:01:41;;;;;;;24.35;16.77;;;;;;;;;;5068804;28;20045;-83
2022/05/01 02:04:06;;;;;;;21.35;16.98;;;;;;;;;;5068933;28;20063;-83
2022/05/01 02:06:35;;;;;;;23.02;16.52;;;;;;;;;;5066403;28;20495;-83
2022/05/01 02:09:06;;;;;;;21.15;16.25;;;;;;;;;;5072783;28;20037;-84
2022/05/01 02:11:32;;;;;;;20.98;17.08;;;;;;;;;;5050723;28;20045;-83
2022/05/01 02:13:58;;;;;;;24.50;17.05;;;;;;;;;;5066520;28;20045;-82
2022/05/01 02:16:25;;;;;;;21.55;15.52;;;;;;;;;;5071404;28;20427;-83
2022/05/01 02:18:56;;;;;;;20.77;17.17;;;;;;;;;;5054750;28;20040;-82
2022/05/01 02:21:47;;;;;;;19.33;16.45;;;;;;;;;;5053113;28;20079;-84
2022/05/01 02:24:44;;;;;;;;;;;;;;;;;;;;;
2022/05/01 02:30:26;;;;;;;20.55;17.65;;;;;;;;;;5051434;28;20089;-82
2022/05/01 02:32:59;;;;;;;23.10;17.85;;;;;;;;;;5070801;28;20036;-83
2022/05/01 02:35:31;;;;;;;20.10;16.58;;;;;;;;;;5055252;28;20040;-84
2022/05/01 02:38:33;;;;;;;21.88;16.92;;;;;;;;;;5058334;28;20048;-83
2022/05/01 02:41:07;;;;;;;20.63;16.95;;;;;;;;;;5038012;28;20040;-84
2022/05/01 02:43:51;;;;;;;20.02;17.17;;;;;;;;;;5071171;28;20056;-84
2022/05/01 02:49:15;;;;;;;20.67;17.15;;;;;;;;;;5050284;28;20045;-84
2022/05/01 02:52:06;;;;;;;;;;;;;;;;;;;;;
2022/05/01 02:54:43;;;;;;;25.55;18.08;;;;;;;;;;5063304;28;20045;-83
2022/05/01 02:57:14;;;;;;;23.77;18.67;;;;;;;;;;5072156;28;20045;-84
2022/05/01 02:59:47;;;;;;;23.95;17.88;;;;;;;;;;5072953;28;20053;-84
2022/05/01 03:02:29;;;;;;;;;;;;;;;;;;;;;
2022/05/01 03:04:57;;;;;;;22.25;19.00;;;;;;;;;;5053088;28;20308;-83
2022/05/01 03:07:43;;;;;;;23.90;18.73;;;;;;;;;;5069948;28;20045;-83
2022/05/01 03:10:14;;;;;;;21.42;18.17;;;;;;;;;;5049135;28;20037;-83
2022/05/01 03:15:39;;;;;;;22.08;18.10;;;;;;;;;;5044833;28;20045;-83
2022/05/01 03:23:37;;;;;;;25.13;19.23;;;;;;;;;;5056390;28;20063;-83
2022/05/01 03:26:03;;;;;;;23.25;19.52;;;;;;;;;;5073696;28;20044;-84
2022/05/01 03:28:32;;;;;;;27.02;20.75;;;;;;;;;;5054075;28;20048;-83
2022/05/01 03:31:03;;;;;;;23.20;19.17;;;;;;;;;;5072968;28;20059;-83
2022/05/01 03:33:42;;;;;;;;;;;;;;;;;;;;;
2022/05/01 03:36:19;;;;;;;;;;;;;;;;;;;;;
2022/05/01 03:39:00;;;;;;;24.10;19.77;;;;;;;;;;5076610;28;20076;-84
2022/05/01 03:41:29;;;;;;;24.85;19.42;;;;;;;;;;5056873;28;20045;-83
2022/05/01 03:44:05;;;;;;;;;;;;;;;;;;;;;
2022/05/01 03:47:13;;;;;;;24.05;19.65;;;;;;;;;;5072593;28;20453;-84
2022/05/01 03:50:11;;;;;;;;;;;;;;;;;;;;;
2022/05/01 03:55:38;;;;;;;25.38;20.10;;;;;;;;;;5072653;28;20041;-83
2022/05/01 04:01:33;;;;;;;27.60;21.60;;;;;;;;;;5060035;28;20037;-84
2022/05/01 04:04:11;;;;;;;;;;;;;;;;;;;;;
2022/05/01 04:06:53;;;;;;;;;;;;;;;;;;;;;
2022/05/01 04:12:37;;;;;;;24.52;21.70;;;;;;;;;;5042863;28;19952;-84
2022/05/01 04:15:14;;;;;;;28.15;22.80;;;;;;;;;;5054898;28;20056;-83
2022/05/01 04:17:50;;;;;;;27.02;22.08;;;;;;;;;;5058932;28;20049;-84
2022/05/01 04:20:17;;;;;;;26.45;22.30;;;;;;;;;;5063985;28;20045;-84
2022/05/01 04:22:51;;;;;;;27.23;23.42;;;;;;;;;;5045758;28;20052;-84
2022/05/01 04:25:38;;;;;;;28.98;22.95;;;;;;;;;;5042328;28;20045;-83
2022/05/01 04:28:08;;;;;;;32.00;23.30;;;;;;;;;;5048430;28;20044;-84
2022/05/01 04:30:37;;;;;;;28.10;23.10;;;;;;;;;;5055180;28;20057;-84
2022/05/01 04:33:10;;;;;;;28.63;24.27;;;;;;;;;;5039147;28;20040;-83
2022/05/01 04:35:40;;;;;;;30.40;23.20;;;;;;;;;;5073369;28;20042;-84
2022/05/01 04:38:13;;;;;;;26.92;22.80;;;;;;;;;;5055756;28;20072;-83
2022/05/01 04:40:49;;;;;;;25.92;23.10;;;;;;;;;;5072281;28;20053;-84
2022/05/01 04:43:18;;;;;;;27.90;23.95;;;;;;;;;;5051647;28;20057;-83
2022/05/01 04:45:49;;;;;;;31.30;24.58;;;;;;;;;;5070385;28;20360;-83
2022/05/01 04:48:15;;;;;;;27.58;24.65;;;;;;;;;;5052496;28;20112;-83
2022/05/01 04:50:44;;;;;;;29.45;24.45;;;;;;;;;;5051985;28;20056;-84
2022/05/01 04:53:16;;;;;;;28.38;24.98;;;;;;;;;;5052039;28;20037;-84
2022/05/01 04:55:49;;;;;;;28.75;24.90;;;;;;;;;;5028233;28;20079;-84
2022/05/01 04:58:20;;;;;;;29.38;24.70;;;;;;;;;;5069349;28;20079;-83
2022/05/01 05:00:48;;;;;;;30.10;25.38;;;;;;;;;;5050561;28;20055;-84
2022/05/01 05:03:14;;;;;;;27.60;24.67;;;;;;;;;;5029751;28;20048;-84
2022/05/01 05:05:40;;;;;;;29.90;25.15;;;;;;;;;;5054842;28;20423;-83
2022/05/01 05:11:11;;;;;;;;;;;;;;;;;;;;;
2022/05/01 05:13:49;;;;;;;26.33;23.52;;;;;;;;;;5049521;28;20041;-84
2022/05/01 05:19:30;;;;;;;27.95;22.83;;;;;;;;;;5050693;28;20049;-84
2022/05/01 05:22:03;;;;;;;27.35;21.95;;;;;;;;;;5064629;28;20041;-83
2022/05/01 05:24:30;;;;;;;25.00;21.45;;;;;;;;;;5068803;28;20071;-85
2022/05/01 05:26:59;;;;;;;25.58;21.92;;;;;;;;;;5069421;28;20071;-83
2022/05/01 05:29:25;;;;;;;24.30;21.70;;;;;;;;;;5051700;28;20083;-83
2022/05/01 05:31:51;;;;;;;24.50;21.40;;;;;;;;;;5070265;28;20044;-84
2022/05/01 05:34:17;;;;;;;24.75;21.95;;;;;;;;;;5051163;28;20052;-82
2022/05/01 05:36:43;;;;;;;23.48;20.92;;;;;;;;;;5069694;28;20045;-83
2022/05/01 05:39:09;;;;;;;23.33;20.35;;;;;;;;;;5034782;28;20045;-84
2022/05/01 05:41:35;;;;;;;23.63;20.75;;;;;;;;;;5048301;28;20037;-84
2022/05/01 05:44:04;;;;;;;25.75;20.48;;;;;;;;;;5039624;28;20073;-84
2022/05/01 05:46:37;;;;;;;23.60;19.58;;;;;;;;;;5066712;28;20128;-83
2022/05/01 05:49:03;;;;;;;23.10;20.23;;;;;;;;;;5056501;28;20036;-83
2022/05/01 05:51:32;;;;;;;22.95;20.45;;;;;;;;;;5069975;28;20067;-83
2022/05/01 05:54:08;;;;;;;;;;;;;;;;;;;;;
2022/05/01 05:56:37;;;;;;;22.73;20.17;;;;;;;;;;5067570;28;20041;-83
2022/05/01 05:59:16;;;;;;;;;;;;;;;;;;;;;
2022/05/01 06:01:43;;;;;;;22.00;19.45;;;;;;;;;;5045320;28;20056;-85
2022/05/01 06:04:18;;;;;;;22.83;20.52;;;;;;;;;;5053141;28;20063;-84
2022/05/01 06:06:52;;;;;;;22.42;19.48;;;;;;;;;;5066845;28;20044;-84
2022/05/01 06:09:25;;;;;;;21.23;18.05;;;;;;;;;;5072261;28;20041;-83
2022/05/01 06:12:16;;;;;;;;;;;;;;;;;;;;;
2022/05/01 06:14:44;;;;;;;26.83;19.30;;;;;;;;;;5063317;28;20113;-84
2022/05/01 06:17:16;;;;;;;25.48;20.52;;;;;;;;;;5070119;28;20049;-83
2022/05/01 06:19:42;;;;;;;;;;;;;;;;;;5073410;28;20025;-84
2022/05/01 06:22:08;;;;;;;25.33;19.75;;;;;;;;;;5052961;28;19981;-84
2022/05/01 06:24:34;;;;;;;22.65;19.48;;;;;;;;;;5049896;28;20080;-84
2022/05/01 06:27:00;;;;;;;24.52;19.52;;;;;;;;;;5064584;28;20041;-85
2022/05/01 06:29:26;;;;;;;23.35;19.75;;;;;;;;;;5066829;28;20061;-84
2022/05/01 06:31:54;;;;;;;23.00;19.10;;;;;;;;;;5068239;28;20522;-84
2022/05/01 06:37:18;;;;;;;23.33;18.10;;;;;;;;;;5061329;28;20105;-83
2022/05/01 06:40:16;;;;;;;24.90;19.60;;;;;;;;;;5047877;28;20041;-85
2022/05/01 06:45:51;;;;;;;22.67;16.50;;;;;;;;;;5043372;28;20049;-84
2022/05/01 06:48:19;;;;;;;22.60;18.35;;;;;;;;;;5041501;28;20048;-83
2022/05/01 06:50:48;;;;;;;19.52;17.40;;;;;;;;;;5057560;28;20098;-83
2022/05/01 06:53:16;;;;;;;22.05;18.05;;;;;;;;;;5053806;28;20045;-84
2022/05/01 06:55:53;;;;;;;21.08;16.67;;;;;;;;;;5048782;28;20097;-83
2022/05/01 06:58:24;;;;;;;20.02;17.23;;;;;;;;;;5047561;28;20042;-83
2022/05/01 07:01:01;;;;;;;18.30;15.63;;;;;;;;;;5071286;28;20055;-83
2022/05/01 07:03:35;;;;;;;19.75;16.38;;;;;;;;;;5063244;28;20044;-84
2022/05/01 07:06:03;;;;;;;20.55;17.95;;;;;;;;;;5024312;28;20530;-84
2022/05/01 07:08:32;;;;;;;19.90;16.88;;;;;;;;;;5037610;28;20052;-83
2022/05/01 07:10:58;;;;;;;18.25;16.30;;;;;;;;;;5035845;28;20060;-83
2022/05/01 07:13:24;;;;;;;21.17;17.05;;;;;;;;;;5021374;28;20037;-83
2022/05/01 07:15:51;;;;;;;20.77;16.58;;;;;;;;;;5049421;28;20053;-83
2022/05/01 07:18:17;;;;;;;19.88;16.58;;;;;;;;;;5054479;28;20090;-82
2022/05/01 07:20:45;;;;;;;18.17;15.55;;;;;;;;;;5033115;28;20134;-83
2022/05/01 07:23:25;;;;;;;;;;;;;;;;;;;;;
2022/05/01 07:25:54;;;;;;;18.23;15.30;;;;;;;;;;5068776;28;20064;-84
2022/05/01 07:28:20;;;;;;;18.15;15.25;;;;;;;;;;5081174;28;20053;-83
2022/05/01 07:30:46;;;;;;;19.90;15.40;;;;;;;;;;5074791;28;20084;-84
2022/05/01 07:33:25;;;;;;;;;;;;;;;;;;;;;
2022/05/01 07:35:51;;;;;;;17.63;14.27;;;;;;;;;;5068495;28;20033;-83
2022/05/01 07:38:20;;;;;;;15.73;14.02;;;;;;;;;;5071239;28;20041;-83
2022/05/01 07:40:46;;;;;;;18.08;14.30;;;;;;;;;;5071963;28;20070;-83
2022/05/01 07:43:12;;;;;;;16.98;13.77;;;;;;;;;;5050628;28;20052;-83
2022/05/01 07:45:38;;;;;;;18.08;15.05;;;;;;;;;;5063227;28;20037;-83
2022/05/01 07:48:08;;;;;;;16.00;14.27;;;;;;;;;;5029297;28;20095;-83
2022/05/01 07:50:34;;;;;;;18.02;14.32;;;;;;;;;;5048393;28;20052;-83
2022/05/01 07:53:07;;;;;;;16.27;14.15;;;;;;;;;;5032471;28;20048;-83
2022/05/01 07:55:53;;;;;;;16.42;14.10;;;;;;;;;;5066201;28;20579;-84
2022/05/01 07:58:20;;;;;;;19.02;13.35;;;;;;;;;;5052493;28;20136;-82
2022/05/01 08:00:59;;;;;;;18.75;14.00;;;;;;;;;;5063822;28;20049;-83
2022/05/01 08:06:27;;;;;;;20.23;12.70;;;;;;;;;;5060633;28;20076;-83
2022/05/01 08:08:56;;;;;;;15.43;12.43;;;;;;;;;;5048957;28;20049;-83
2022/05/01 08:11:30;;;;;;;15.25;12.55;;;;;;;;;;5051996;28;20107;-83
2022/05/01 08:13:58;;;;;;;14.95;12.68;;;;;;;;;;5063330;28;20041;-82
2022/05/01 08:16:27;;;;;;;14.48;12.23;;;;;;;;;;5033941;28;20095;-83
2022/05/01 08:21:38;;;;;;;14.77;11.80;;;;;;;;;;5051466;28;20109;-84
2022/05/01 08:24:04;;;;;;;12.80;10.45;;;;;;;;;;5033211;28;20077;-83
2022/05/01 08:26:34;;;;;;;12.93;10.13;;;;;;;;;;5018078;28;20049;-83
2022/05/01 08:29:01;;;;;;;13.10;10.98;;;;;;;;;;5068382;28;20093;-83
2022/05/01 08:31:27;;;;;;;13.95;10.02;;;;;;;;;;5055649;28;20383;-84
2022/05/01 08:33:56;;;;;;;13.02;9.73;;;;;;;;;;5050690;28;20044;-83
2022/05/01 08:36:23;;;;;;;13.70;9.80;;;;;;;;;;5069408;28;20487;-83
2022/05/01 08:38:52;;;;;;;11.60;9.80;;;;;;;;;;5048819;28;20483;-83
2022/05/01 08:41:18;;;;;;;10.88;9.02;;;;;;;;;;5061226;28;20076;-83
2022/05/01 08:46:56;;;;;;;12.23;9.30;;;;;;;;;;5047039;28;20044;-83
2022/05/01 08:49:33;;;;;;;12.20;8.60;;;;;;;;;;5057821;28;20041;-83
2022/05/01 08:52:12;;;;;;;13.43;8.57;;;;;;;;;;5070904;28;20119;-83
2022/05/01 08:54:41;;;;;;;13.75;8.82;;;;;;;;;;5061624;28;20056;-83
2022/05/01 08:57:32;;;;;;;12.32;8.70;;;;;;;;;;5065113;28;20045;-83
2022/05/01 09:00:09;;;;;;;14.38;8.00;;;;;;;;;;5053461;28;20394;-82
2022/05/01 09:02:48;;;;;;;11.50;8.77;;;;;;;;;;5042287;28;20087;-81
2022/05/01 09:05:21;;;;;;;11.77;8.80;;;;;;;;;;5043105;28;20108;-82
2022/05/01 09:07:47;;;;;;;11.52;8.57;;;;;;;;;;5048628;28;20050;-82
2022/05/01 09:10:14;;;;;;;12.57;7.90;;;;;;;;;;5044998;28;20040;-82
2022/05/01 09:12:52;;;;;;;11.02;8.20;;;;;;;;;;5043760;28;20049;-83
2022/05/01 09:15:41;;;;;;;11.68;8.65;;;;;;;;;;5055496;28;20108;-83
2022/05/01 09:18:12;;;;;;;15.30;9.43;;;;;;;;;;5047408;28;20095;-83
2022/05/01 09:20:58;;;;;;;12.90;9.52;;;;;;;;;;5063610;28;20088;-83
2022/05/01 09:23:39;;;;;;;10.00;7.60;;;;;;;;;;5047366;28;20045;-83
2022/05/01 09:26:05;;;;;;;11.02;7.47;;;;;;;;;;5046986;28;20537;-83
2022/05/01 09:28:32;;;;;;;10.77;7.75;;;;;;;;;;5062313;28;20037;-83
2022/05/01 09:31:08;;;;;;;;;;;;;;;;;;;;;
2022/05/01 09:33:47;;;;;;;12.85;7.63;;;;;;;;;;5059293;28;20076;-83
2022/05/01 09:36:40;;;;;;;10.82;7.60;;;;;;;;;;5061969;28;20093;-82
2022/05/01 09:39:20;;;;;;;11.45;6.50;;;;;;;;;;5072581;28;20098;-83
2022/05/01 09:42:19;;;;;;;;;;;;;;;;;;;;;
2022/05/01 09:45:02;;;;;;;7.38;5.35;;;;;;;;;;5041981;28;20105;-80
2022/05/01 09:47:35;;;;;;;8.70;5.75;;;;;;;;;;5065947;28;20051;-81
2022/05/01 09:50:04;;;;;;;10.32;5.97;;;;;;;;;;5046401;28;20049;-80
2022/05/01 09:53:09;;;;;;;9.77;6.22;;;;;;;;;;5063696;28;20044;-80
2022/05/01 09:55:35;;;;;;;8.77;5.93;;;;;;;;;;5001360;28;20140;-79
2022/05/01 09:58:09;;;;;;;10.68;6.22;;;;;;;;;;5002101;28;20100;-79
2022/05/01 10:00:36;;;;;;;8.80;5.68;;;;;;;;;;5000964;28;20530;-79
2022/05/01 10:03:21;;;;;;;9.57;6.28;;;;;;;;;;4997285;28;20075;-79
2022/05/01 10:05:51;;;;;;;11.07;6.70;;;;;;;;;;4992450;28;20046;-78
2022/05/01 10:08:18;;;;;;;9.48;6.30;;;;;;;;;;4999175;28;20078;-79
2022/05/01 10:10:45;;;;;;;9.57;6.72;;;;;;;;;;4986695;28;20054;-79
2022/05/01 10:13:12;;;;;;;8.70;6.40;;;;;;;;;;5001430;28;20043;-80
2022/05/01 10:15:38;;;;;;;11.40;6.55;;;;;;;;;;5003613;28;20072;-80
2022/05/01 10:18:04;;;;;;;11.18;6.60;;;;;;;;;;4981032;28;20045;-79
2022/05/01 10:20:31;;;;;;;12.65;9.35;;;;;;;;;;4984233;28;20050;-79
2022/05/01 10:22:57;;;;;;;9.30;6.72;;;;;;;;;;4999247;28;20547;-80
2022/05/01 10:25:23;;;;;;;10.05;6.40;;;;;;;;;;5007506;28;20049;-80
2022/05/01 10:28:10;;;;;;;11.20;7.35;;;;;;;;;;5044932;28;20037;-79
2022/05/01 10:33:49;;;;;;;8.55;6.55;;;;;;;;;;5068403;28;20049;-80
2022/05/01 10:36:15;;;;;;;10.10;6.40;;;;;;;;;;5039524;28;20611;-79
2022/05/01 10:39:00;;;;;;;9.63;6.40;;;;;;;;;;5059113;28;20056;-80
2022/05/01 10:41:26;;;;;;;10.82;6.38;;;;;;;;;;5058432;28;20064;-79
2022/05/01 10:43:56;;;;;;;8.77;6.07;;;;;;;;;;5058213;28;20044;-78
2022/05/01 10:46:22;;;;;;;8.52;5.50;;;;;;;;;;5058879;28;20047;-81
2022/05/01 10:48:48;;;;;;;8.55;5.97;;;;;;;;;;5049851;28;20045;-79
2022/05/01 10:51:38;;;;;;;8.18;5.65;;;;;;;;;;5050985;28;20067;-78
2022/05/01 10:54:10;;;;;;;9.48;5.35;;;;;;;;;;5057380;28;20055;-80
2022/05/01 10:56:40;;;;;;;10.63;5.93;;;;;;;;;;5027967;28;20037;-80
2022/05/01 10:59:25;;;;;;;8.13;5.43;;;;;;;;;;5064590;28;20127;-78
2022/05/01 11:01:54;;;;;;;9.48;5.93;;;;;;;;;;5061566;28;20056;-78
2022/05/01 11:04:22;;;;;;;11.95;6.10;;;;;;;;;;5043786;28;20106;-79
2022/05/01 11:06:54;;;;;;;9.48;6.32;;;;;;;;;;5060753;28;20041;-80
2022/05/01 11:09:24;;;;;;;9.05;5.68;;;;;;;;;;5045186;28;20049;-79
2022/05/01 11:12:08;;;;;;;8.77;5.63;;;;;;;;;;5054456;28;20076;-80
2022/05/01 11:14:49;;;;;;;10.35;5.80;;;;;;;;;;5054047;28;20071;-80
2022/05/01 11:17:16;;;;;;;7.53;4.80;;;;;;;;;;5039709;28;20052;-79
2022/05/01 11:19:45;;;;;;;7.32;5.00;;;;;;;;;;5041788;28;20068;-80
2022/05/01 11:22:14;;;;;;;8.73;5.25;;;;;;;;;;5053646;28;20084;-80
2022/05/01 11:24:41;;;;;;;9.00;5.57;;;;;;;;;;5057661;28;20124;-80
2022/05/01 11:27:14;;;;;;;8.13;5.60;;;;;;;;;;5042259;28;20095;-79
2022/05/01 11:30:00;;;;;;;10.55;6.05;;;;;;;;;;5055847;28;20049;-79
2022/05/01 11:32:26;;;;;;;9.63;5.30;;;;;;;;;;5062780;28;20073;-80
2022/05/01 11:34:53;;;;;;;8.77;5.28;;;;;;;;;;5043434;28;20415;-77
2022/05/01 11:37:20;;;;;;;9.70;5.60;;;;;;;;;;5050148;28;20041;-78
2022/05/01 11:39:52;;;;;;;7.90;5.13;;;;;;;;;;5046164;28;20060;-81
2022/05/01 11:42:25;;;;;;;9.73;5.65;;;;;;;;;;5052340;28;20040;-80
2022/05/01 11:44:55;;;;;;;9.75;5.80;;;;;;;;;;5062317;28;20041;-80
2022/05/01 11:47:25;;;;;;;9.48;5.75;;;;;;;;;;5064597;28;20033;-81
2022/05/01 11:49:51;;;;;;;9.18;5.60;;;;;;;;;;5038521;28;20479;-81
2022/05/01 11:52:17;;;;;;;10.40;5.65;;;;;;;;;;5056350;28;20056;-80
2022/05/01 11:55:06;;;;;;;8.50;5.47;;;;;;;;;;5047468;28;20048;-79
2022/05/01 12:03:04;;;;;;;8.30;5.40;;;;;;;;;;5065020;28;20092;-80
2022/05/01 12:05:31;;;;;;;10.35;6.13;;;;;;;;;;5045919;28;20502;-78
2022/05/01 12:07:59;;;;;;;10.57;5.60;;;;;;;;;;5061962;28;20185;-80
2022/05/01 12:10:25;;;;;;;9.75;5.13;;;;;;;;;;5043501;28;20099;-79
2022/05/01 12:12:51;;;;;;;7.80;5.55;;;;;;;;;;5065515;28;20041;-80
2022/05/01 12:15:17;;;;;;;8.68;5.30;;;;;;;;;;5061971;28;20057;-80
2022/05/01 12:17:43;;;;;;;8.82;5.50;;;;;;;;;;5061824;28;20114;-80
2022/05/01 12:20:13;;;;;;;8.25;5.38;;;;;;;;;;5041637;28;20465;-79
2022/05/01 12:22:39;;;;;;;9.00;5.57;;;;;;;;;;5063987;28;20566;-79
2022/05/01 12:25:06;;;;;;;8.73;5.35;;;;;;;;;;5059637;28;20122;-79
2022/05/01 12:27:35;;;;;;;9.25;5.63;;;;;;;;;;5040564;28;20045;-80
2022/05/01 12:30:04;;;;;;;7.85;5.75;;;;;;;;;;5062470;28;20041;-80
2022/05/01 12:32:31;;;;;;;7.32;4.25;;;;;;;;;;5077633;28;20051;-79
2022/05/01 12:35:00;;;;;;;7.70;4.28;;;;;;;;;;5088037;28;20044;-79
2022/05/01 12:37:34;;;;;;;9.52;5.10;;;;;;;;;;5067281;28;20045;-80
2022/05/01 12:40:04;;;;;;;7.90;4.47;;;;;;;;;;5059963;28;20045;-80
2022/05/01 12:45:22;;;;;;;7.60;4.53;;;;;;;;;;5059126;28;20102;-84
2022/05/01 12:47:48;;;;;;;8.73;4.80;;;;;;;;;;5046256;28;20040;-84
2022/05/01 12:50:21;;;;;;;6.78;4.05;;;;;;;;;;5030203;28;20051;-77
2022/05/01 12:52:53;;;;;;;7.07;4.20;;;;;;;;;;5045856;28;20084;-81
2022/05/01 12:55:20;;;;;;;14.23;8.20;;;;;;;;;;5064423;28;20110;-80
2022/05/01 12:57:50;;;;;;;18.02;10.88;;;;;;;;;;5061038;28;20075;-80
2022/05/01 13:00:30;;;;;;;35.58;20.60;;;;;;;;;;5049259;28;20494;-80
2022/05/01 13:03:15;;;;;;;37.15;22.27;;;;;;;;;;5053425;28;20068;-81
2022/05/01 13:05:43;;;;;;;7.15;4.60;;;;;;;;;;5046306;28;20037;-80
2022/05/01 13:08:16;;;;;;;8.93;4.20;;;;;;;;;;5062842;28;20068;-81
2022/05/01 13:10:42;;;;;;;7.22;4.10;;;;;;;;;;5061128;28;20066;-80
2022/05/01 13:13:08;;;;;;;20.35;13.30;;;;;;;;;;5045355;28;20045;-81
2022/05/01 13:15:38;;;;;;;6.88;4.07;;;;;;;;;;5061023;28;20514;-80
2022/05/01 13:18:04;;;;;;;8.35;4.45;;;;;;;;;;5063314;28;20048;-81
2022/05/01 13:20:30;;;;;;;6.80;4.50;;;;;;;;;;5044757;28;20037;-81
2022/05/01 13:22:57;;;;;;;7.30;4.32;;;;;;;;;;5043292;28;20087;-80
2022/05/01 13:25:23;;;;;;;9.82;4.80;;;;;;;;;;5074675;28;20048;-80
2022/05/01 13:27:49;;;;;;;8.32;4.72;;;;;;;;;;5044622;28;20045;-81
2022/05/01 13:30:15;;;;;;;7.60;3.75;;;;;;;;;;5046335;28;20060;-81
2022/05/01 13:32:41;;;;;;;6.72;3.88;;;;;;;;;;5064122;28;20091;-81
2022/05/01 13:35:07;;;;;;;7.63;4.50;;;;;;;;;;5061597;28;20045;-81
2022/05/01 13:37:34;;;;;;;6.35;4.25;;;;;;;;;;5045150;28;20096;-81
2022/05/01 13:45:30;;;;;;;6.40;3.65;;;;;;;;;;5063615;28;20040;-81
2022/05/01 13:47:56;;;;;;;7.35;4.25;;;;;;;;;;5066399;28;20469;-80
2022/05/01 13:50:24;;;;;;;6.35;4.35;;;;;;;;;;5065285;28;20072;-81
2022/05/01 13:52:50;;;;;;;6.65;4.40;;;;;;;;;;5027523;28;20090;-79
2022/05/01 13:55:16;;;;;;;8.10;3.88;;;;;;;;;;5070658;28;20127;-82
2022/05/01 13:57:43;;;;;;;8.95;4.38;;;;;;;;;;5049705;28;20037;-82
2022/05/01 14:00:11;;;;;;;6.43;3.95;;;;;;;;;;5062656;28;20132;-81
2022/05/01 14:02:37;;;;;;;8.30;4.30;;;;;;;;;;5064470;28;20041;-80
2022/05/01 14:05:03;;;;;;;7.90;3.58;;;;;;;;;;5065157;28;20048;-81
2022/05/01 14:07:29;;;;;;;7.38;4.20;;;;;;;;;;5063945;28;20037;-81
2022/05/01 14:09:55;;;;;;;7.93;4.28;;;;;;;;;;5064933;28;20167;-81
2022/05/01 14:12:21;;;;;;;7.32;4.55;;;;;;;;;;5040612;28;20095;-81
2022/05/01 14:14:48;;;;;;;7.32;4.70;;;;;;;;;;5039485;28;20045;-81
2022/05/01 14:17:14;;;;;;;7.15;4.40;;;;;;;;;;5063683;28;20064;-80
2022/05/01 14:19:41;;;;;;;6.90;4.00;;;;;;;;;;5065417;28;20049;-81
2022/05/01 14:22:09;;;;;;;6.57;3.85;;;;;;;;;;5077777;28;20072;-81
2022/05/01 14:24:35;;;;;;;7.18;3.75;;;;;;;;;;5062656;28;20036;-80
2022/05/01 14:27:02;;;;;;;7.78;3.97;;;;;;;;;;5074493;28;20052;-80
2022/05/01 14:29:28;;;;;;;7.25;4.68;;;;;;;;;;5064129;28;20070;-81
2022/05/01 14:32:16;;;;;;;6.90;3.63;;;;;;;;;;5062776;28;20037;-80
2022/05/01 14:34:46;;;;;;;7.18;3.67;;;;;;;;;;5063930;28;20124;-80
2022/05/01 14:37:16;;;;;;;6.00;3.90;;;;;;;;;;5063645;28;20041;-81
2022/05/01 14:39:43;;;;;;;8.13;4.20;;;;;;;;;;5059141;28;20041;-80
2022/05/01 14:42:16;;;;;;;7.35;3.70;;;;;;;;;;5055472;28;20091;-79
2022/05/01 14:44:48;;;;;;;6.85;3.85;;;;;;;;;;5040372;28;20109;-81
2022/05/01 14:47:14;;;;;;;;;;;;;;;;;;5061536;28;20060;-80
2022/05/01 14:49:40;;;;;;;7.70;3.70;;;;;;;;;;5027802;28;19921;-80
2022/05/01 14:52:07;;;;;;;6.82;4.20;;;;;;;;;;5061871;28;20056;-79
2022/05/01 14:54:34;;;;;;;6.18;3.80;;;;;;;;;;5047301;28;20060;-79
2022/05/01 14:57:02;;;;;;;7.95;4.10;;;;;;;;;;5047710;28;20048;-81
2022/05/01 15:07:53;;;;;;;6.90;3.50;;;;;;;;;;5044499;28;20045;-81
2022/05/01 15:10:20;;;;;;;5.80;3.80;;;;;;;;;;5045932;28;20124;-81
2022/05/01 15:12:46;;;;;;;8.18;4.07;;;;;;;;;;5046680;28;20041;-81
2022/05/01 15:15:13;;;;;;;7.93;4.15;;;;;;;;;;5047183;28;20045;-80
2022/05/01 15:17:39;;;;;;;8.55;4.40;;;;;;;;;;5044945;28;20447;-79
2022/05/01 15:20:20;;;;;;;8.60;4.38;;;;;;;;;;5041703;28;20050;-80
2022/05/01 15:23:09;;;;;;;9.40;3.88;;;;;;;;;;5046826;28;20045;-81
2022/05/01 15:25:40;;;;;;;7.10;3.70;;;;;;;;;;5045220;28;20060;-80
2022/05/01 15:28:13;;;;;;;6.55;3.55;;;;;;;;;;5046582;28;20042;-80
2022/05/01 15:30:44;;;;;;;6.38;3.70;;;;;;;;;;5047213;28;20041;-80
2022/05/01 15:36:13;;;;;;;8.27;3.92;;;;;;;;;;5043410;28;20566;-80
2022/05/01 15:38:55;;;;;;;6.57;3.97;;;;;;;;;;5017282;28;20054;-80
2022/05/01 15:41:24;;;;;;;7.15;3.78;;;;;;;;;;5044095;28;20057;-81
2022/05/01 15:43:50;;;;;;;6.63;3.83;;;;;;;;;;5032721;28;20042;-80
2022/05/01 15:46:30;;;;;;;6.68;3.60;;;;;;;;;;5027644;28;20075;-80
2022/05/01 15:54:28;;;;;;;9.27;5.07;;;;;;;;;;5046041;28;20049;-81
2022/05/01 15:56:58;;;;;;;7.65;4.65;;;;;;;;;;5043871;28;20515;-79
2022/05/01 15:59:24;;;;;;;10.02;4.95;;;;;;;;;;5043416;28;20049;-81
2022/05/01 16:01:54;;;;;;;8.75;4.53;;;;;;;;;;5046809;28;20053;-79
2022/05/01 16:04:25;;;;;;;8.77;5.10;;;;;;;;;;5061577;28;20506;-80
2022/05/01 16:06:52;;;;;;;7.05;4.85;;;;;;;;;;5065182;28;20491;-79
2022/05/01 16:09:53;;;;;;;7.63;4.97;;;;;;;;;;5064887;28;20041;-80
2022/05/01 16:12:25;;;;;;;8.35;5.07;;;;;;;;;;5003059;28;20059;-80
2022/05/01 16:14:59;;;;;;;8.90;5.15;;;;;;;;;;5009408;28;20046;-81
2022/05/01 16:17:44;;;;;;;7.30;5.07;;;;;;;;;;5023466;28;20133;-80
2022/05/01 16:20:15;;;;;;;8.75;4.93;;;;;;;;;;5015171;28;20474;-78
2022/05/01 16:22:47;;;;;;;9.00;4.93;;;;;;;;;;5003950;28;20058;-79
2022/05/01 16:25:16;;;;;;;8.98;5.90;;;;;;;;;;5005423;28;20050;-80
2022/05/01 16:27:44;;;;;;;9.80;5.43;;;;;;;;;;5010209;28;20052;-79
2022/05/01 16:30:14;;;;;;;9.20;5.50;;;;;;;;;;5024587;28;20125;-80
2022/05/01 16:32:52;;;;;;;9.57;5.43;;;;;;;;;;5002008;28;20057;-80
2022/05/01 16:35:19;;;;;;;8.93;5.35;;;;;;;;;;5001788;28;20587;-79
2022/05/01 16:37:50;;;;;;;9.40;5.40;;;;;;;;;;5004329;28;20110;-80
2022/05/01 16:40:21;;;;;;;8.83;5.50;;;;;;;;;;4987462;28;20130;-80
2022/05/01 16:42:49;;;;;;;9.63;5.75;;;;;;;;;;5013160;28;20296;-80